createdAt,value
2023-02-07T06:32:42.512Z,17.73
2023-02-07T06:35:09.687Z,20.27
2023-02-07T06:37:36.890Z,15.80
2023-02-07T06:40:04.903Z,19.95
2023-02-07T06:42:32.452Z,17.70
2023-02-07T06:44:59.571Z,21.75
2023-02-07T06:47:27.440Z,17.55
2023-02-07T06:49:54.460Z,20.80
2023-02-07T06:52:22.036Z,17.13
2023-02-07T06:54:49.191Z,17.58
2023-02-07T06:57:16.785Z,17.08
2023-02-07T06:59:44.025Z,17.73
2023-02-07T07:02:13.448Z,17.88
2023-02-07T07:04:41.738Z,21.90
2023-02-07T07:07:10.037Z,17.45
2023-02-07T07:09:37.961Z,23.67
2023-02-07T07:12:06.312Z,21.98
2023-02-07T07:14:34.068Z,18.92
2023-02-07T07:17:01.881Z,20.33
2023-02-07T07:19:29.555Z,16.08
2023-02-07T07:21:59.075Z,17.92
2023-02-07T07:24:27.263Z,16.23
2023-02-07T07:26:56.496Z,19.33
2023-02-07T07:29:23.882Z,18.80
2023-02-07T07:31:51.540Z,17.08
2023-02-07T07:34:19.101Z,16.75
2023-02-07T07:36:47.258Z,17.52
2023-02-07T07:39:17.214Z,15.88
2023-02-07T07:41:44.947Z,17.27
2023-02-07T07:44:12.598Z,15.35
2023-02-07T07:46:39.763Z,16.08
2023-02-07T07:49:07.449Z,15.43
2023-02-07T07:51:35.245Z,14.57
2023-02-07T07:54:03.016Z,13.85
2023-02-07T07:56:30.780Z,14.52
2023-02-07T07:59:00.314Z,13.95
2023-02-07T08:01:29.080Z,12.10
2023-02-07T08:03:56.856Z,12.07
2023-02-07T08:06:24.864Z,11.77
2023-02-07T08:08:53.565Z,11.07
2023-02-07T08:11:20.888Z,12.73
2023-02-07T08:13:49.006Z,11.48
2023-02-07T08:16:17.094Z,12.27
2023-02-07T08:18:44.293Z,12.68
2023-02-07T08:21:11.544Z,11.82
2023-02-07T08:23:40.207Z,9.65
2023-02-07T08:26:08.345Z,13.30
2023-02-07T08:28:35.729Z,14.00
2023-02-07T08:31:05.393Z,13.57
2023-02-07T08:33:33.222Z,12.70
2023-02-07T08:36:00.739Z,12.35
2023-02-07T08:38:28.516Z,11.20
2023-02-07T08:40:55.756Z,10.80
2023-02-07T08:43:22.957Z,11.82
2023-02-07T08:45:50.269Z,11.23
2023-02-07T08:48:17.984Z,11.13
2023-02-07T08:50:45.440Z,10.27
2023-02-07T08:53:12.767Z,10.50
2023-02-07T08:55:43.997Z,10.27
2023-02-07T08:58:12.180Z,8.90
2023-02-07T09:00:40.834Z,11.30
2023-02-07T09:03:09.657Z,10.38
2023-02-07T09:05:38.296Z,7.95
2023-02-07T09:08:07.023Z,8.00
2023-02-07T09:10:36.141Z,8.50
2023-02-07T09:13:04.793Z,8.35
2023-02-07T09:15:37.065Z,8.75
2023-02-07T09:18:10.170Z,8.13
2023-02-07T09:20:41.752Z,8.25
2023-02-07T09:23:22.582Z,9.13
2023-02-07T09:25:55.221Z,7.07
2023-02-07T09:28:23.439Z,8.52
2023-02-07T09:30:52.527Z,8.38
2023-02-07T09:33:23.951Z,7.93
2023-02-07T09:35:58.160Z,9.30
2023-02-07T09:38:26.962Z,8.57
2023-02-07T09:40:58.651Z,9.02
2023-02-07T09:43:40.647Z,9.00
2023-02-07T09:46:30.030Z,7.45
2023-02-07T09:49:10.076Z,7.65
2023-02-07T09:51:38.963Z,7.47
2023-02-07T09:54:41.108Z,8.02
2023-02-07T09:57:19.142Z,8.10
2023-02-07T09:59:54.881Z,8.02
2023-02-07T10:02:29.293Z,7.93
2023-02-07T10:05:06.070Z,7.35
2023-02-07T10:07:36.659Z,7.25
2023-02-07T10:10:04.693Z,6.88
2023-02-07T10:13:00.113Z,7.90
2023-02-07T10:15:43.512Z,7.43
2023-02-07T10:18:39.107Z,8.25
2023-02-07T10:21:33.723Z,8.50
2023-02-07T10:24:41.400Z,7.97
2023-02-07T10:27:16.110Z,6.97
2023-02-07T10:30:01.733Z,7.15
2023-02-07T10:32:36.388Z,8.90
2023-02-07T10:35:23.170Z,7.35
2023-02-07T10:38:38.448Z,7.65
2023-02-07T10:41:32.440Z,7.25
2023-02-07T10:44:03.869Z,7.10
2023-02-07T10:46:36.088Z,6.80
2023-02-07T10:49:04.501Z,7.47
2023-02-07T10:51:37.035Z,7.60
2023-02-07T10:54:11.230Z,7.22
2023-02-07T10:56:47.575Z,7.70
2023-02-07T10:59:45.917Z,7.45
2023-02-07T11:02:29.648Z,8.18
2023-02-07T11:05:21.683Z,7.25
2023-02-07T11:08:19.424Z,6.57
2023-02-07T11:10:49.311Z,7.68
2023-02-07T11:13:26.295Z,9.02
2023-02-07T11:16:00.631Z,8.95
2023-02-07T11:18:56.141Z,7.47
2023-02-07T11:21:39.043Z,8.20
2023-02-07T11:24:12.166Z,7.82
2023-02-07T11:26:56.779Z,7.78
2023-02-07T11:29:27.160Z,7.72
2023-02-07T11:31:58.054Z,8.55
2023-02-07T11:35:08.688Z,8.68
2023-02-07T11:37:39.574Z,7.50
2023-02-07T11:40:28.895Z,8.38
2023-02-07T11:43:16.026Z,7.07
2023-02-07T11:45:47.154Z,8.70
2023-02-07T11:48:41.157Z,8.00
2023-02-07T11:51:15.455Z,8.68
2023-02-07T11:54:07.848Z,8.32
2023-02-07T11:57:05.365Z,8.20
2023-02-07T11:59:35.172Z,8.68
2023-02-07T12:02:25.655Z,8.68
2023-02-07T12:04:56.888Z,10.27
2023-02-07T12:07:38.339Z,9.15
2023-02-07T12:10:14.255Z,9.65
2023-02-07T12:12:49.800Z,9.98
2023-02-07T12:15:28.063Z,10.15
2023-02-07T12:18:10.460Z,9.35
2023-02-07T12:20:57.031Z,10.50
2023-02-07T12:23:42.730Z,9.45
2023-02-07T12:26:32.271Z,10.10
2023-02-07T12:29:12.409Z,9.30
2023-02-07T12:32:20.028Z,9.38
2023-02-07T12:35:00.577Z,9.95
2023-02-07T12:37:47.351Z,9.13
2023-02-07T12:40:43.935Z,10.75
2023-02-07T12:43:33.281Z,8.45
2023-02-07T12:46:01.772Z,9.27
2023-02-07T12:48:29.445Z,9.43
2023-02-07T12:51:03.709Z,8.55
2023-02-07T12:53:55.367Z,9.52
2023-02-07T12:57:07.695Z,9.80
2023-02-07T12:59:45.986Z,9.45
2023-02-07T13:02:42.766Z,9.43
2023-02-07T13:05:30.522Z,9.70
2023-02-07T13:08:20.056Z,10.63
2023-02-07T13:11:02.619Z,8.70
2023-02-07T13:13:55.790Z,10.07
2023-02-07T13:16:45.015Z,9.50
2023-02-07T13:19:41.440Z,10.52
2023-02-07T13:22:29.713Z,8.73
2023-02-07T13:25:03.793Z,10.07
2023-02-07T13:27:34.461Z,9.52
2023-02-07T13:30:04.269Z,9.70
2023-02-07T13:32:33.736Z,9.57
2023-02-07T13:35:08.243Z,10.35
2023-02-07T13:38:01.331Z,8.70
2023-02-07T13:41:10.786Z,9.07
2023-02-07T13:44:09.428Z,8.98
2023-02-07T13:47:01.713Z,10.35
2023-02-07T13:49:38.230Z,8.98
2023-02-07T13:52:28.337Z,9.07
2023-02-07T13:55:11.328Z,8.45
2023-02-07T13:58:00.633Z,8.90
2023-02-07T14:00:36.345Z,8.27
2023-02-07T14:03:09.167Z,7.55
2023-02-07T14:08:25.100Z,9.93
2023-02-07T14:10:56.509Z,7.72
2023-02-07T14:13:28.137Z,9.30
2023-02-07T14:15:59.952Z,9.18
2023-02-07T14:18:41.171Z,9.57
2023-02-07T14:21:25.020Z,8.27
2023-02-07T14:23:57.952Z,9.77
2023-02-07T14:26:40.242Z,8.15
2023-02-07T14:29:27.615Z,8.52
2023-02-07T14:31:58.646Z,9.05
2023-02-07T14:34:52.773Z,8.85
2023-02-07T14:37:24.732Z,8.85
2023-02-07T14:40:05.612Z,9.13
2023-02-07T14:42:33.090Z,8.48
2023-02-07T14:45:00.621Z,8.18
2023-02-07T14:47:29.839Z,8.30
2023-02-07T14:50:00.408Z,9.15
2023-02-07T14:52:31.683Z,7.68
2023-02-07T14:55:17.061Z,6.60
2023-02-07T14:58:01.638Z,8.23
2023-02-07T15:00:45.094Z,8.07
2023-02-07T15:03:16.532Z,8.50
2023-02-07T15:06:04.525Z,8.00
2023-02-07T15:08:35.072Z,7.60
2023-02-07T15:11:08.341Z,6.32
2023-02-07T15:13:43.371Z,7.63
2023-02-07T15:16:21.252Z,6.95
2023-02-07T15:18:53.815Z,6.25
2023-02-07T15:21:31.219Z,7.57
2023-02-07T15:24:04.267Z,5.93
2023-02-07T15:26:32.818Z,6.07
2023-02-07T15:29:03.162Z,5.35
2023-02-07T15:31:31.261Z,6.32
2023-02-07T15:34:01.218Z,7.28
2023-02-07T15:36:33.049Z,7.40
2023-02-07T15:39:03.566Z,6.57
2023-02-07T15:41:31.379Z,6.93
2023-02-07T15:44:04.578Z,6.90
2023-02-07T15:47:07.653Z,5.90
2023-02-07T15:49:40.927Z,6.22
2023-02-07T15:52:32.011Z,6.22
2023-02-07T15:55:01.821Z,6.65
2023-02-07T15:57:36.888Z,5.47
2023-02-07T16:00:14.890Z,5.35
2023-02-07T16:02:48.154Z,5.18
2023-02-07T16:05:44.698Z,5.45
2023-02-07T16:08:32.283Z,5.78
2023-02-07T16:11:34.120Z,6.95
2023-02-07T16:14:20.029Z,6.07
2023-02-07T16:16:47.842Z,8.10
2023-02-07T16:19:16.960Z,8.02
2023-02-07T16:21:44.964Z,7.43
2023-02-07T16:24:20.847Z,7.07
2023-02-07T16:26:50.502Z,6.40
2023-02-07T16:29:20.552Z,6.22
2023-02-07T16:31:48.478Z,6.28
2023-02-07T16:34:17.547Z,4.95
2023-02-07T16:36:47.722Z,5.38
2023-02-07T16:39:16.511Z,6.00
2023-02-07T16:41:47.518Z,6.13
2023-02-07T16:44:22.847Z,6.82
2023-02-07T16:46:50.305Z,7.10
2023-02-07T16:49:22.849Z,5.88
2023-02-07T16:51:50.605Z,6.78
2023-02-07T16:54:18.100Z,8.00
2023-02-07T16:56:47.858Z,6.63
2023-02-07T16:59:18.573Z,7.63
